Time;durP1;ratioP1;P1;durP2;ratioP2;P2;SDS_P1;SDS_P2;PMS_P1;PMS_P2;Temp;Humidity;BMP_temperature;BMP_pressure;BME280_temperature;BME280_humidity;BME280_pressure;Samples;Min_cycle;Max_cycle;Signal;HPM_P1;HPM_P2
2022/06/26 00:01:04;;;;;;;19.97;16.47;;;;;;;16.62;100.00;101059.78;4975977;28;20691;-83
2022/06/26 00:03:30;;;;;;;19.40;17.30;;;;;;;16.70;100.00;101064.84;4993011;28;20064;-83
2022/06/26 00:05:55;;;;;;;20.13;17.13;;;;;;;16.65;100.00;101063.94;4993157;28;21485;-83
2022/06/26 00:08:21;;;;;;;19.77;17.67;;;;;;;16.64;100.00;101068.56;4993355;28;20045;-86
2022/06/26 00:10:47;;;;;;;19.20;16.20;;;;;;;16.67;100.00;101062.63;4992795;28;20111;-84
2022/06/26 00:13:13;;;;;;;19.80;16.13;;;;;;;16.67;100.00;101059.03;4993690;28;20488;-85
2022/06/26 00:15:39;;;;;;;18.77;16.00;;;;;;;16.65;100.00;101075.69;4993100;28;20042;-84
2022/06/26 00:18:04;;;;;;;19.63;15.80;;;;;;;16.68;100.00;101077.94;4993380;28;20105;-83
2022/06/26 00:20:30;;;;;;;19.03;16.13;;;;;;;16.67;100.00;101076.28;4991914;28;20061;-84
2022/06/26 00:22:56;;;;;;;20.97;16.40;;;;;;;16.62;100.00;101065.25;4993721;28;20033;-84
2022/06/26 00:25:21;;;;;;;20.70;16.47;;;;;;;16.65;100.00;101075.69;4993403;28;20046;-83
2022/06/26 00:27:47;;;;;;;20.80;16.50;;;;;;;16.53;100.00;101056.59;4992895;28;20202;-85
2022/06/26 00:30:13;;;;;;;19.70;16.70;;;;;;;16.52;100.00;101073.25;4992967;28;20042;-83
2022/06/26 00:32:39;;;;;;;19.80;17.37;;;;;;;16.54;100.00;101073.88;4992805;28;20041;-84
2022/06/26 00:35:06;;;;;;;21.77;17.67;;;;;;;16.53;100.00;101080.41;4992590;28;20046;-85
2022/06/26 00:37:31;;;;;;;20.60;17.57;;;;;;;16.50;100.00;101084.47;4991526;28;20029;-85
2022/06/26 00:39:57;;;;;;;22.13;18.00;;;;;;;16.54;100.00;101090.28;4992640;28;20088;-83
2022/06/26 00:42:22;;;;;;;21.37;18.03;;;;;;;16.53;100.00;101097.63;4993161;28;20043;-84
2022/06/26 00:44:51;;;;;;;21.40;17.97;;;;;;;16.51;100.00;101108.00;4992375;28;20045;-83
2022/06/26 00:47:17;;;;;;;22.10;18.90;;;;;;;16.49;100.00;101103.84;4993706;28;20044;-83
2022/06/26 00:49:44;;;;;;;21.67;18.23;;;;;;;16.46;100.00;101107.91;4991758;28;21393;-85
2022/06/26 00:52:09;;;;;;;21.13;18.50;;;;;;;16.52;100.00;101114.28;4992926;28;20040;-84
2022/06/26 00:54:35;;;;;;;21.17;18.83;;;;;;;16.52;100.00;101117.03;4992158;28;20107;-84
2022/06/26 00:57:00;;;;;;;22.33;19.40;;;;;;;16.50;100.00;101111.00;4993576;28;20099;-85
2022/06/26 00:59:27;;;;;;;22.90;19.70;;;;;;;16.48;100.00;101124.06;4992664;28;20065;-84
2022/06/26 01:01:53;;;;;;;24.10;20.40;;;;;;;16.42;100.00;101104.00;4992807;28;20064;-85
2022/06/26 01:04:18;;;;;;;27.77;24.17;;;;;;;16.48;100.00;101126.78;4992533;28;21824;-85
2022/06/26 01:06:44;;;;;;;26.17;23.37;;;;;;;16.48;100.00;101129.53;4995483;28;20059;-85
2022/06/26 01:09:11;;;;;;;26.37;22.63;;;;;;;16.45;100.00;101128.13;4996388;28;20037;-84
2022/06/26 01:11:37;;;;;;;26.23;22.43;;;;;;;16.48;100.00;101129.53;4995710;28;20056;-84
2022/06/26 01:14:03;;;;;;;26.50;22.53;;;;;;;16.48;100.00;101129.53;4996314;28;20038;-84
2022/06/26 01:16:29;;;;;;;27.20;24.27;;;;;;;16.40;100.00;101121.72;4996796;28;20038;-83
2022/06/26 01:18:56;;;;;;;28.90;24.30;;;;;;;16.46;100.00;101123.50;5011091;28;20069;-84
2022/06/26 01:21:23;;;;;;;29.70;25.20;;;;;;;16.44;100.00;101126.47;4995490;28;20034;-84
2022/06/26 01:23:50;;;;;;;29.73;24.57;;;;;;;16.47;100.00;101130.59;4995634;28;20093;-86
2022/06/26 01:26:16;;;;;;;30.43;25.37;;;;;;;16.46;100.00;101132.53;4976774;28;20048;-85
2022/06/26 01:28:41;;;;;;;29.47;24.67;;;;;;;16.50;100.00;101138.34;4995945;28;20053;-83
2022/06/26 01:31:07;;;;;;;26.03;21.83;;;;;;;16.47;100.00;101147.88;4995258;28;21300;-84
2022/06/26 01:33:33;;;;;;;26.53;20.60;;;;;;;16.47;100.00;101147.88;4994883;28;20046;-84
2022/06/26 01:35:59;;;;;;;20.33;17.97;;;;;;;16.46;100.00;101142.63;5008178;28;20391;-84
2022/06/26 01:38:24;;;;;;;21.10;17.67;;;;;;;16.44;100.00;101147.50;4994657;28;20042;-85
2022/06/26 01:40:51;;;;;;;22.47;18.40;;;;;;;16.43;100.00;101138.47;4994831;28;20041;-86
2022/06/26 01:43:21;;;;;;;21.53;18.03;;;;;;;16.40;100.00;101136.25;4995802;28;20570;-84
2022/06/26 01:45:53;;;;;;;22.30;18.37;;;;;;;16.36;100.00;101127.69;4995316;28;20380;-86
2022/06/26 01:48:19;;;;;;;22.17;18.33;;;;;;;16.43;100.00;101145.84;4993898;28;20137;-86
2022/06/26 01:50:45;;;;;;;24.70;20.10;;;;;;;16.41;100.00;101150.75;4994352;28;20148;-86
2022/06/26 01:53:11;;;;;;;24.37;20.90;;;;;;;16.40;100.00;101141.72;4995154;28;20483;-85
2022/06/26 01:55:37;;;;;;;24.37;21.10;;;;;;;16.34;100.00;101135.28;4994701;28;20111;-86
2022/06/26 01:58:03;;;;;;;26.57;22.90;;;;;;;16.31;100.00;101130.31;4995170;28;20038;-84
2022/06/26 02:00:30;;;;;;;27.30;22.93;;;;;;;16.26;100.00;101132.94;4994990;28;20041;-84
2022/06/26 02:02:56;;;;;;;26.90;23.00;;;;;;;16.24;100.00;101137.84;4993567;28;20030;-85
2022/06/26 02:05:21;;;;;;;26.97;23.30;;;;;;;16.19;100.00;101132.25;4994822;28;20034;-84
2022/06/26 02:07:47;;;;;;;26.90;23.57;;;;;;;16.22;100.00;101129.03;4994825;28;20037;-84
2022/06/26 02:15:40;;;;;;;28.80;24.67;;;;;;;16.03;100.00;101107.38;4994725;28;20544;-86
2022/06/26 02:18:06;;;;;;;28.23;23.87;;;;;;;16.07;100.00;101123.25;5008413;28;20038;-86
2022/06/26 02:20:31;;;;;;;29.53;23.67;;;;;;;16.04;100.00;101119.09;4994552;28;20179;-84
2022/06/26 02:22:57;;;;;;;28.27;24.07;;;;;;;16.00;100.00;101113.28;4994947;28;20474;-84
2022/06/26 02:25:22;;;;;;;27.70;24.50;;;;;;;15.93;100.00;101100.84;4993937;28;20570;-84
2022/06/26 02:27:48;;;;;;;29.30;24.87;;;;;;;15.95;100.00;101109.63;4994910;28;20042;-85
2022/06/26 02:30:14;;;;;;;31.33;24.80;;;;;;;15.87;100.00;101099.91;4994731;28;20371;-86
2022/06/26 02:32:40;;;;;;;28.53;24.83;;;;;;;15.86;100.00;101103.72;4994074;28;20119;-85
2022/06/26 02:35:06;;;;;;;30.10;24.97;;;;;;;15.90;100.00;101113.09;4994220;28;20258;-84
2022/06/26 02:37:32;;;;;;;30.40;25.23;;;;;;;15.92;100.00;101115.56;4992857;28;20100;-86
2022/06/26 02:39:57;;;;;;;30.03;26.03;;;;;;;15.90;100.00;101115.81;4994504;28;20577;-84
2022/06/26 02:42:23;;;;;;;32.10;26.30;;;;;;;15.90;100.00;101126.75;4994098;28;20137;-85
2022/06/26 02:44:48;;;;;;;30.90;26.10;;;;;;;15.91;100.00;101135.78;4993117;28;20038;-84
2022/06/26 02:47:13;;;;;;;30.43;25.20;;;;;;;15.90;100.00;101142.28;4993053;28;20050;-85
2022/06/26 02:49:39;;;;;;;30.47;25.40;;;;;;;15.90;100.00;101154.06;4994209;28;20042;-85
2022/06/26 02:52:04;;;;;;;31.67;26.47;;;;;;;15.88;100.00;101147.19;4993990;28;20092;-85
2022/06/26 02:54:29;;;;;;;31.30;25.60;;;;;;;15.88;100.00;101148.00;4995272;28;20169;-85
2022/06/26 02:56:55;;;;;;;30.53;25.37;;;;;;;15.87;100.00;101151.84;4994056;28;20049;-85
2022/06/26 02:59:21;;;;;;;32.20;26.67;;;;;;;15.82;100.00;101146.25;4994522;28;20057;-87
2022/06/26 03:01:46;;;;;;;31.30;25.13;;;;;;;15.84;100.00;101161.34;4992288;28;20572;-85
2022/06/26 03:04:11;;;;;;;31.87;24.30;;;;;;;15.82;100.00;101165.38;4995357;28;20084;-85
2022/06/26 03:06:37;;;;;;;31.53;23.57;;;;;;;15.73;100.00;101161.31;4993365;28;20136;-85
2022/06/26 03:09:03;;;;;;;29.90;22.43;;;;;;;15.69;100.00;101175.44;4994554;28;20145;-85
2022/06/26 03:11:28;;;;;;;30.00;22.90;;;;;;;15.65;100.00;101168.81;4993347;28;20372;-85
2022/06/26 03:13:53;;;;;;;30.40;24.67;;;;;;;15.64;100.00;101169.00;4992839;28;20060;-85
2022/06/26 03:16:19;;;;;;;28.97;23.40;;;;;;;15.59;100.00;101163.47;4992134;28;20034;-86
2022/06/26 03:18:44;;;;;;;29.83;24.13;;;;;;;15.58;100.00;101165.34;4993994;28;20038;-85
2022/06/26 03:21:09;;;;;;;30.77;23.83;;;;;;;15.53;100.00;101160.59;4993212;28;20398;-85
2022/06/26 03:26:19;;;;;;;24.42;18.95;;;;;;;15.39;100.00;101177.44;4993424;28;20048;-86
2022/06/26 03:28:44;;;;;;;23.10;16.80;;;;;;;15.34;100.00;101186.34;4992245;28;20463;-85
2022/06/26 03:31:09;;;;;;;24.33;16.67;;;;;;;15.31;100.00;101197.72;4993686;28;20876;-86
2022/06/26 03:33:35;;;;;;;22.53;15.93;;;;;;;15.21;100.00;101187.38;4992704;28;20123;-84
2022/06/26 03:36:00;;;;;;;22.23;16.07;;;;;;;15.13;100.00;101191.28;4991498;28;20044;-85
2022/06/26 03:38:25;;;;;;;22.80;15.63;;;;;;;15.09;100.00;101194.72;4992524;28;20454;-85
2022/06/26 03:40:51;;;;;;;22.50;15.43;;;;;;;15.08;100.00;101204.81;4993089;28;20058;-85
2022/06/26 03:43:16;;;;;;;20.87;14.70;;;;;;;15.06;100.00;101203.38;4993508;28;20117;-85
2022/06/26 03:45:42;;;;;;;21.80;15.07;;;;;;;15.05;100.00;101223.53;4993089;28;20096;-85
2022/06/26 03:48:08;;;;;;;21.87;14.40;;;;;;;15.03;100.00;101230.06;4993065;28;20523;-85
2022/06/26 03:50:33;;;;;;;20.37;15.37;;;;;;;14.96;100.00;101225.75;4993732;28;20037;-84
2022/06/26 03:52:58;;;;;;;21.57;14.53;;;;;;;14.97;100.00;101219.25;4992864;28;20073;-84
2022/06/26 03:55:24;;;;;;;22.10;14.67;;;;;;;14.95;100.00;101235.84;4991425;28;20488;-84
2022/06/26 03:57:49;;;;;;;21.90;14.47;;;;;;;14.91;100.00;101237.38;4994536;28;20045;-83
2022/06/26 04:00:15;;;;;;;21.67;14.80;;;;;;;14.83;100.00;101230.34;4993737;28;20038;-86
2022/06/26 04:02:41;;;;;;;21.23;15.00;;;;;;;14.84;100.00;101233.91;4992544;28;20312;-85
2022/06/26 04:05:08;;;;;;;20.60;14.10;;;;;;;14.76;100.00;101224.16;4993169;28;20080;-85
2022/06/26 04:07:33;;;;;;;20.67;14.10;;;;;;;14.80;100.00;101224.53;4992660;28;20026;-84
2022/06/26 04:09:59;;;;;;;21.73;13.90;;;;;;;14.70;100.00;101230.53;4993178;28;20038;-85
2022/06/26 04:12:24;;;;;;;20.63;14.30;;;;;;;14.71;100.00;101221.28;4992442;28;20050;-85
2022/06/26 04:14:50;;;;;;;20.97;14.17;;;;;;;14.71;100.00;101220.44;4993713;28;20345;-85
2022/06/26 04:17:15;;;;;;;21.93;14.33;;;;;;;14.61;100.00;101205.44;4992404;28;20038;-85
2022/06/26 04:19:41;;;;;;;20.97;14.07;;;;;;;14.72;100.00;101213.94;4992369;28;20081;-85
2022/06/26 04:22:06;;;;;;;19.27;14.57;;;;;;;14.71;100.00;101228.63;4992799;28;20414;-85
2022/06/26 04:24:31;;;;;;;23.80;15.13;;;;;;;14.65;100.00;101214.84;4992506;28;20078;-85
2022/06/26 04:26:57;;;;;;;23.93;15.43;;;;;;;14.71;100.00;101223.19;4992171;28;20584;-84
2022/06/26 04:29:22;;;;;;;21.80;14.67;;;;;;;14.73;100.00;101237.41;4989971;28;20521;-85
2022/06/26 04:31:48;;;;;;;21.37;14.53;;;;;;;14.71;100.00;101239.53;4992739;28;20036;-85
2022/06/26 04:34:14;;;;;;;22.47;14.70;;;;;;;14.71;100.00;101245.00;4992940;28;20042;-85
2022/06/26 04:36:40;;;;;;;22.50;14.60;;;;;;;14.76;100.00;101253.34;4992677;28;20045;-85
2022/06/26 04:39:05;;;;;;;23.73;15.10;;;;;;;14.69;100.00;101254.22;4993127;28;20616;-84
2022/06/26 04:41:37;;;;;;;22.17;14.80;;;;;;;14.75;100.00;101266.13;4995092;28;20049;-85
2022/06/26 04:44:07;;;;;;;23.50;15.73;;;;;;;14.78;100.00;101275.75;4995752;28;20046;-85
2022/06/26 04:46:33;;;;;;;20.23;13.80;;;;;;;14.78;100.00;101268.41;5009171;28;20472;-86
2022/06/26 04:48:59;;;;;;;20.67;13.40;;;;;;;14.72;100.00;101277.50;4996814;28;20076;-85
2022/06/26 04:51:24;;;;;;;22.50;13.77;;;;;;;14.67;100.00;101274.63;4995130;28;20037;-85
2022/06/26 04:53:49;;;;;;;19.77;13.83;;;;;;;14.75;100.00;101287.94;4996192;28;20589;-85
2022/06/26 04:56:15;;;;;;;21.87;13.17;;;;;;;14.77;100.00;101280.38;4996409;28;20140;-86
2022/06/26 04:58:40;;;;;;;19.13;12.90;;;;;;;14.74;100.00;101285.44;4996142;28;20076;-86
2022/06/26 05:01:06;;;;;;;21.73;12.77;;;;;;;14.81;100.00;101297.09;4995629;28;20394;-85
2022/06/26 05:03:31;;;;;;;18.70;13.27;;;;;;;14.83;100.00;101297.72;4996159;28;20044;-85
2022/06/26 05:05:56;;;;;;;21.40;12.40;;;;;;;14.80;100.00;101290.00;4995702;28;20120;-86
2022/06/26 05:08:22;;;;;;;19.47;11.83;;;;;;;14.87;100.00;101296.19;4995058;28;20038;-85
2022/06/26 05:10:47;;;;;;;18.30;11.00;;;;;;;14.85;100.00;101298.34;4995790;28;20042;-86
2022/06/26 05:13:13;;;;;;;18.27;12.00;;;;;;;14.91;100.00;101296.56;4996457;28;20042;-85
2022/06/26 05:15:38;;;;;;;19.53;12.20;;;;;;;14.94;100.00;101298.84;4996100;28;20046;-85
2022/06/26 05:18:04;;;;;;;20.93;11.63;;;;;;;14.92;100.00;101288.16;4995226;28;20128;-84
2022/06/26 05:20:30;;;;;;;17.97;11.17;;;;;;;14.92;100.00;101282.69;4997090;28;20700;-85
2022/06/26 05:22:55;;;;;;;18.10;11.60;;;;;;;15.01;100.00;101292.25;4995750;28;20950;-84
2022/06/26 05:25:21;;;;;;;19.97;11.77;;;;;;;15.05;100.00;101297.22;4995918;28;21348;-88
2022/06/26 05:27:46;;;;;;;18.33;11.50;;;;;;;15.07;100.00;101306.84;4995172;28;20099;-86
2022/06/26 05:30:12;;;;;;;20.27;11.80;;;;;;;15.07;100.00;101300.53;4995796;28;20041;-86
2022/06/26 05:32:37;;;;;;;17.87;11.40;;;;;;;14.94;100.00;101274.28;4995192;28;21446;-85
2022/06/26 05:35:03;;;;;;;18.07;11.53;;;;;;;14.94;100.00;101269.63;4996059;28;20048;-86
2022/06/26 05:37:28;;;;;;;18.37;11.43;;;;;;;15.09;100.00;101282.06;4995052;28;20232;-85
2022/06/26 05:39:53;;;;;;;18.77;11.23;;;;;;;15.08;100.00;101285.84;4996242;28;20046;-86
2022/06/26 05:42:19;;;;;;;18.33;11.23;;;;;;;15.15;100.00;101283.84;4995546;28;20254;-85
2022/06/26 05:44:44;;;;;;;18.50;11.00;;;;;;;15.13;100.00;101286.81;4993983;28;20045;-85
2022/06/26 05:47:09;;;;;;;16.63;10.30;;;;;;;15.16;100.00;101296.44;4996420;28;20072;-85
2022/06/26 05:49:35;;;;;;;16.90;10.03;;;;;;;15.18;100.00;101297.88;4995578;28;20042;-84
2022/06/26 05:52:00;;;;;;;15.07;9.57;;;;;;;15.32;99.83;101324.97;4994563;28;20034;-85
2022/06/26 05:54:26;;;;;;;15.70;9.17;;;;;;;15.35;98.42;101319.03;4995708;28;20130;-84
2022/06/26 05:56:51;;;;;;;15.97;9.37;;;;;;;15.31;97.98;101323.31;4992405;28;20049;-85
2022/06/26 05:59:17;;;;;;;15.30;9.67;;;;;;;15.38;97.97;101332.25;4995359;28;20038;-85
2022/06/26 06:01:42;;;;;;;17.90;9.20;;;;;;;15.41;97.10;101345.44;4994682;28;20155;-85
2022/06/26 06:04:08;;;;;;;14.13;8.43;;;;;;;15.42;97.48;101344.38;4995197;28;20038;-84
2022/06/26 06:06:35;;;;;;;16.83;9.23;;;;;;;15.52;97.20;101347.38;4993351;28;20056;-85
2022/06/26 06:09:00;;;;;;;16.83;9.63;;;;;;;15.43;96.09;101337.84;4995455;28;20064;-85
2022/06/26 06:11:26;;;;;;;18.27;9.53;;;;;;;15.55;95.17;101346.06;4995889;28;20038;-85
2022/06/26 06:13:51;;;;;;;16.37;9.00;;;;;;;15.62;94.23;101351.44;4994528;28;20386;-86
2022/06/26 06:16:17;;;;;;;18.10;9.10;;;;;;;15.68;94.89;101362.25;4994957;28;20088;-85
2022/06/26 06:18:43;;;;;;;15.33;9.10;;;;;;;15.72;94.29;101345.41;4994321;28;20130;-86
2022/06/26 06:21:08;;;;;;;14.43;9.13;;;;;;;15.86;94.56;101355.91;5001945;28;20037;-85
2022/06/26 06:23:34;;;;;;;15.17;9.07;;;;;;;15.97;94.25;101348.81;5002428;28;20251;-85
2022/06/26 06:25:59;;;;;;;16.00;8.73;;;;;;;16.09;92.78;101351.56;5000670;28;20034;-85
2022/06/26 06:28:25;;;;;;;14.57;8.70;;;;;;;16.11;91.10;101348.59;5001662;28;20037;-85
2022/06/26 06:30:50;;;;;;;14.73;8.20;;;;;;;16.30;91.93;101354.78;5002624;28;20083;-83
2022/06/26 06:33:16;;;;;;;16.10;8.40;;;;;;;16.32;90.57;101350.72;5001957;28;20042;-83
2022/06/26 06:35:41;;;;;;;16.23;9.20;;;;;;;16.31;89.80;101343.59;5001292;28;20643;-85
2022/06/26 06:38:07;;;;;;;14.47;8.20;;;;;;;16.37;89.96;101339.91;5001831;28;20038;-82
2022/06/26 06:40:32;;;;;;;18.40;8.70;;;;;;;16.42;90.67;101332.91;5002646;28;20038;-85
2022/06/26 06:42:58;;;;;;;15.60;8.80;;;;;;;16.47;89.64;101352.13;5002048;28;20041;-83
2022/06/26 06:45:23;;;;;;;13.00;6.90;;;;;;;16.50;87.12;101362.63;5000368;28;20062;-84
2022/06/26 06:47:48;;;;;;;12.53;7.13;;;;;;;16.53;89.66;101353.94;5001747;28;21452;-83
2022/06/26 06:50:14;;;;;;;13.67;7.03;;;;;;;16.69;88.51;101366.88;5000764;28;20092;-84
2022/06/26 06:52:39;;;;;;;13.10;7.47;;;;;;;16.69;87.78;101372.34;5000108;28;20034;-84
2022/06/26 06:55:05;;;;;;;17.03;7.90;;;;;;;16.70;87.72;101376.75;5001363;28;20370;-83
2022/06/26 06:57:31;;;;;;;13.53;7.70;;;;;;;16.82;88.26;101401.38;5001037;28;20135;-84
2022/06/26 06:59:57;;;;;;;15.63;8.10;;;;;;;16.84;88.30;101398.38;5001701;28;20041;-84
2022/06/26 07:02:22;;;;;;;15.40;8.17;;;;;;;16.89;88.20;101406.75;5016334;28;20038;-83
2022/06/26 07:04:47;;;;;;;15.30;7.93;;;;;;;16.93;88.58;101409.81;5001334;28;20076;-84
2022/06/26 07:07:13;;;;;;;12.47;7.70;;;;;;;16.99;88.82;101409.69;5016537;28;20116;-84
2022/06/26 07:09:38;;;;;;;12.80;7.47;;;;;;;17.00;86.55;101418.75;5000801;28;20048;-84
2022/06/26 07:12:04;;;;;;;15.77;7.87;;;;;;;17.02;87.10;101428.34;5000246;28;20041;-84
2022/06/26 07:14:30;;;;;;;14.77;7.60;;;;;;;17.04;86.97;101428.16;5001574;28;20050;-84
2022/06/26 07:16:55;;;;;;;14.80;7.90;;;;;;;17.19;86.81;101435.84;5000229;28;20398;-84
2022/06/26 07:19:20;;;;;;;15.97;8.50;;;;;;;17.35;88.32;101439.72;5005672;28;20041;-85
2022/06/26 07:21:46;;;;;;;13.50;7.53;;;;;;;17.42;86.24;101434.09;5001208;28;20116;-85
2022/06/26 07:24:12;;;;;;;15.90;8.07;;;;;;;17.51;84.71;101440.88;5001387;28;20050;-84
2022/06/26 07:26:38;;;;;;;14.07;7.80;;;;;;;17.38;84.67;101437.34;5000744;28;20038;-85
2022/06/26 07:29:04;;;;;;;14.90;7.73;;;;;;;17.48;84.47;101436.69;5000764;28;20026;-85
2022/06/26 07:31:29;;;;;;;14.43;7.47;;;;;;;17.59;84.52;101429.50;5000978;28;20037;-84
2022/06/26 07:34:13;;;;;;;14.05;8.15;;;;;;;17.65;83.96;101431.28;4999719;28;20521;-86
2022/06/26 07:36:43;;;;;;;11.47;6.70;;;;;;;17.63;82.13;101421.66;4999847;28;20030;-83
2022/06/26 07:39:14;;;;;;;11.50;6.57;;;;;;;17.67;81.60;101434.59;5000590;28;20783;-83
2022/06/26 07:41:41;;;;;;;15.20;7.30;;;;;;;17.74;82.90;101434.44;5001156;28;20389;-88
2022/06/26 07:44:06;;;;;;;12.23;6.63;;;;;;;17.77;82.17;101431.22;4999408;28;20102;-85
2022/06/26 07:46:34;;;;;;;14.07;6.82;;;;;;;17.73;82.33;101435.53;5000361;28;20042;-83
2022/06/26 07:49:00;;;;;;;14.63;6.70;;;;;;;17.81;82.04;101439.78;5001564;28;20030;-85
2022/06/26 07:51:25;;;;;;;14.17;7.10;;;;;;;17.72;82.27;101434.69;5001179;28;20037;-84
2022/06/26 07:53:50;;;;;;;13.50;7.27;;;;;;;17.63;81.93;101427.13;5000735;28;20504;-83
2022/06/26 07:56:16;;;;;;;16.33;7.88;;;;;;;17.74;82.78;101436.38;5000060;28;20049;-83
2022/06/26 07:58:41;;;;;;;12.77;6.97;;;;;;;17.70;80.74;101444.25;4989556;28;20041;-84
2022/06/26 08:01:07;;;;;;;13.40;6.60;;;;;;;17.69;81.18;101440.69;5000853;28;20646;-83
2022/06/26 08:03:32;;;;;;;12.50;6.97;;;;;;;17.75;80.24;101447.09;5000556;28;20371;-82
2022/06/26 08:05:57;;;;;;;11.93;7.13;;;;;;;17.84;80.86;101448.34;5000775;28;20048;-84
2022/06/26 08:08:23;;;;;;;14.18;6.95;;;;;;;17.92;81.93;101449.88;5000944;28;20034;-85
2022/06/26 08:10:48;;;;;;;11.47;6.40;;;;;;;17.90;80.57;101460.25;5001266;28;20509;-84
2022/06/26 08:13:13;;;;;;;12.43;6.57;;;;;;;17.93;80.97;101462.50;5001273;28;20026;-84
2022/06/26 08:15:39;;;;;;;10.50;6.23;;;;;;;17.91;79.92;101459.16;5003539;28;20494;-85
2022/06/26 08:18:05;;;;;;;11.55;6.30;;;;;;;17.84;80.81;101463.94;5004430;28;20575;-84
2022/06/26 08:20:31;;;;;;;9.27;6.18;;;;;;;17.86;80.22;101459.06;5002447;28;20041;-86
2022/06/26 08:22:56;;;;;;;10.63;6.10;;;;;;;17.89;81.57;101464.88;5004830;28;20046;-83
2022/06/26 08:25:22;;;;;;;11.00;6.15;;;;;;;17.72;78.67;101462.09;5004679;28;20053;-83
2022/06/26 08:27:47;;;;;;;9.07;5.63;;;;;;;17.75;79.18;101468.16;5004316;28;20133;-83
2022/06/26 08:30:13;;;;;;;8.00;6.07;;;;;;;17.84;79.44;101469.44;5004227;28;20034;-83
2022/06/26 08:32:38;;;;;;;8.68;5.82;;;;;;;17.79;78.65;101477.56;5005108;28;20277;-83
2022/06/26 08:35:08;;;;;;;10.93;5.37;;;;;;;17.67;78.83;101466.66;5004749;28;20245;-83
2022/06/26 08:37:33;;;;;;;10.15;5.43;;;;;;;17.65;78.03;101466.91;5002990;28;20088;-83
2022/06/26 08:39:59;;;;;;;9.70;5.03;;;;;;;17.69;78.98;101461.75;5004390;28;20699;-82
2022/06/26 08:42:26;;;;;;;9.38;5.72;;;;;;;17.77;79.74;101458.63;5004592;28;20088;-83
2022/06/26 08:44:56;;;;;;;10.68;5.78;;;;;;;17.66;77.70;101460.31;5002325;28;20036;-83
2022/06/26 08:47:24;;;;;;;7.40;4.90;;;;;;;17.74;77.43;101463.78;5004677;28;20510;-83
2022/06/26 08:49:50;;;;;;;9.68;5.95;;;;;;;17.61;78.17;101462.16;5003931;28;20033;-82
2022/06/26 08:52:19;;;;;;;8.60;4.80;;;;;;;17.62;79.58;101463.81;5002653;28;20046;-82
2022/06/26 08:54:45;;;;;;;10.27;5.37;;;;;;;17.58;78.74;101471.69;5004527;28;20037;-82
2022/06/26 08:57:13;;;;;;;10.53;5.27;;;;;;;17.61;79.95;101476.69;5002760;28;20463;-84
2022/06/26 08:59:38;;;;;;;8.30;5.00;;;;;;;17.65;79.05;101486.09;5002086;28;20067;-83
2022/06/26 09:02:04;;;;;;;9.63;5.70;;;;;;;17.60;79.89;101480.50;5004154;28;20038;-84
2022/06/26 09:04:29;;;;;;;9.40;5.80;;;;;;;17.59;79.20;101478.84;5004287;28;20482;-82
2022/06/26 09:06:55;;;;;;;8.07;5.50;;;;;;;17.64;79.76;101478.09;5002570;28;20044;-84
2022/06/26 09:09:27;;;;;;;10.57;5.93;;;;;;;17.77;80.21;101476.97;5004179;28;20481;-83
2022/06/26 09:11:55;;;;;;;10.30;6.13;;;;;;;17.67;81.17;101462.00;5004135;28;20417;-83
2022/06/26 09:14:22;;;;;;;11.50;6.15;;;;;;;17.80;80.79;101490.19;5004440;28;20116;-85
2022/06/26 09:16:49;;;;;;;8.05;5.25;;;;;;;17.80;79.55;101488.31;5002017;28;20548;-82
2022/06/26 09:19:20;;;;;;;9.63;5.88;;;;;;;17.68;79.96;101471.06;5003069;28;20057;-83
2022/06/26 09:21:47;;;;;;;10.40;6.53;;;;;;;17.62;80.27;101477.50;5003728;28;20149;-84
2022/06/26 09:24:15;;;;;;;9.77;6.50;;;;;;;17.64;81.43;101470.72;5001400;28;20654;-83
2022/06/26 09:26:43;;;;;;;10.32;5.88;;;;;;;17.77;80.31;101476.97;5003781;28;20044;-82
2022/06/26 09:29:13;;;;;;;8.20;5.60;;;;;;;17.76;80.04;101489.00;5003312;28;20044;-82
2022/06/26 09:31:39;;;;;;;9.32;6.10;;;;;;;17.80;79.81;101473.75;5003080;28;20068;-82
2022/06/26 09:34:19;;;;;;;8.88;5.85;;;;;;;17.85;79.84;101463.69;5001232;28;20092;-82
2022/06/26 09:37:21;;;;;;;9.13;5.85;;;;;;;18.02;81.03;101469.25;5003539;28;20221;-82
2022/06/26 09:39:46;;;;;;;10.65;5.85;;;;;;;17.98;79.23;101483.72;4990500;28;20157;-83
2022/06/26 09:42:18;;;;;;;9.68;5.35;;;;;;;18.04;78.11;101500.00;5003633;28;20541;-83
2022/06/26 09:44:49;;;;;;;9.53;5.60;;;;;;;18.03;78.72;101490.13;5002803;28;20120;-83
2022/06/26 09:47:31;;;;;;;10.50;5.68;;;;;;;18.14;78.43;101488.41;5003052;28;20125;-83
2022/06/26 09:50:00;;;;;;;8.53;5.27;;;;;;;18.16;77.20;101477.19;5002675;28;20044;-84
2022/06/26 09:52:28;;;;;;;9.30;5.35;;;;;;;18.11;74.74;101474.34;5001804;28;20038;-85
2022/06/26 09:54:55;;;;;;;8.48;4.90;;;;;;;17.99;74.75;101483.47;5003357;28;20088;-83
2022/06/26 09:57:22;;;;;;;11.07;5.60;;;;;;;18.09;77.09;101492.94;5000930;28;21035;-86
2022/06/26 09:59:47;;;;;;;8.30;5.50;;;;;;;18.11;75.69;101490.81;5002724;28;20049;-85
2022/06/26 10:07:53;;;;;;;8.75;5.63;;;;;;;18.24;76.16;101493.22;5002195;28;20185;-85
2022/06/26 10:10:24;;;;;;;9.38;5.70;;;;;;;18.28;76.83;101504.53;5001270;28;20374;-85
2022/06/26 10:12:56;;;;;;;7.03;4.43;;;;;;;18.33;74.56;101510.97;5002203;28;20045;-85
2022/06/26 10:15:33;;;;;;;9.10;3.85;;;;;;;18.33;72.85;101513.69;5001814;28;20477;-84
2022/06/26 10:18:01;;;;;;;6.07;4.13;;;;;;;18.26;72.04;101503.94;5002373;28;20382;-83
2022/06/26 10:20:29;;;;;;;8.95;4.40;;;;;;;18.34;72.74;101517.25;5002120;28;20081;-84
2022/06/26 10:22:54;;;;;;;5.85;4.10;;;;;;;18.33;71.30;101516.44;5001906;28;20041;-87
2022/06/26 10:25:25;;;;;;;6.07;4.00;;;;;;;18.31;72.14;101518.59;5014582;28;20722;-83
2022/06/26 10:27:51;;;;;;;5.88;3.55;;;;;;;18.33;73.27;101526.56;5001563;28;20523;-83
2022/06/26 10:30:20;;;;;;;5.40;4.10;;;;;;;18.32;72.87;101527.66;5002050;28;20046;-83
2022/06/26 10:32:45;;;;;;;8.90;4.88;;;;;;;18.42;72.84;101532.50;5002250;28;20065;-83
2022/06/26 10:35:13;;;;;;;8.98;4.10;;;;;;;18.29;72.64;101511.69;5017146;28;20137;-84
2022/06/26 10:37:42;;;;;;;5.22;4.10;;;;;;;18.38;73.98;101515.69;5001862;28;20033;-84
2022/06/26 10:43:12;;;;;;;6.47;4.23;;;;;;;18.29;73.31;101530.88;5002134;28;20053;-85
2022/06/26 10:45:40;;;;;;;6.15;4.00;;;;;;;18.26;73.54;101521.22;4984465;28;20041;-84
2022/06/26 10:48:17;;;;;;;6.07;3.35;;;;;;;18.39;74.61;101526.41;5001492;28;20040;-83
2022/06/26 10:50:42;;;;;;;5.15;3.33;;;;;;;18.41;71.94;101528.06;5001698;28;20045;-84
2022/06/26 10:53:14;;;;;;;7.93;4.10;;;;;;;18.53;74.40;101524.16;5000363;28;20040;-84
2022/06/26 10:55:42;;;;;;;7.10;4.13;;;;;;;18.54;72.75;101527.75;5002115;28;20029;-84
2022/06/26 10:58:07;;;;;;;7.80;3.53;;;;;;;18.65;71.90;101529.59;4989480;28;20551;-84
2022/06/26 11:00:33;;;;;;;4.88;3.63;;;;;;;18.72;68.63;101527.50;5002089;28;20034;-84
2022/06/26 11:02:58;;;;;;;7.72;3.42;;;;;;;18.89;70.28;101515.72;5001581;28;20109;-84
2022/06/26 11:05:24;;;;;;;5.75;4.07;;;;;;;18.97;69.83;101531.78;5001443;28;20038;-85
2022/06/26 11:07:51;;;;;;;5.88;3.58;;;;;;;19.05;68.68;101534.09;5002582;28;20037;-85
2022/06/26 11:10:19;;;;;;;5.25;4.03;;;;;;;19.12;68.65;101528.44;5000090;28;20053;-85
2022/06/26 11:12:49;;;;;;;7.75;4.43;;;;;;;19.00;70.51;101528.50;5001635;28;20048;-85
2022/06/26 11:15:30;;;;;;;7.80;3.78;;;;;;;19.06;69.04;101524.75;5000931;28;20042;-84
2022/06/26 11:17:58;;;;;;;5.55;3.42;;;;;;;19.03;66.76;101519.75;5001579;28;20060;-85
2022/06/26 11:23:29;;;;;;;6.43;3.25;;;;;;;19.32;68.04;101514.13;5001597;28;20076;-84
2022/06/26 11:26:03;;;;;;;8.20;3.40;;;;;;;19.32;66.35;101503.13;5000663;28;20041;-85
2022/06/26 11:28:41;;;;;;;7.43;3.25;;;;;;;19.25;65.46;101505.25;5001531;28;20624;-84